sensor_id;sensor_type;location;lat;lon;timestamp;P1;durP1;ratioP1;P2;durP2;ratioP2
4430;SDS011;2228;48.140;11.488;2023-08-30T09:50:42;3.63;;;2.20;;
4430;SDS011;2228;48.140;11.488;2023-08-30T09:53:13;3.10;;;2.00;;
4430;SDS011;2228;48.140;11.488;2023-08-30T09:55:43;2.80;;;1.70;;
4430;SDS011;2228;48.140;11.488;2023-08-30T09:58:11;2.70;;;1.67;;
4430;SDS011;2228;48.140;11.488;2023-08-30T10:00:38;1.40;;;1.30;;
4430;SDS011;2228;48.140;11.488;2023-08-30T10:03:05;2.40;;;1.60;;
4430;SDS011;2228;48.140;11.488;2023-08-30T10:05:33;1.67;;;1.50;;
4430;SDS011;2228;48.140;11.488;2023-08-30T10:08:02;6.00;;;1.50;;
4430;SDS011;2228;48.140;11.488;2023-08-30T10:10:32;4.32;;;1.73;;
4430;SDS011;2228;48.140;11.488;2023-08-30T10:13:00;2.60;;;2.13;;
4430;SDS011;2228;48.140;11.488;2023-08-30T10:15:27;3.00;;;1.80;;
4430;SDS011;2228;48.140;11.488;2023-08-30T10:18:02;1.60;;;1.50;;
4430;SDS011;2228;48.140;11.488;2023-08-30T10:20:32;3.30;;;1.90;;
4430;SDS011;2228;48.140;11.488;2023-08-30T10:22:59;1.80;;;1.60;;
4430;SDS011;2228;48.140;11.488;2023-08-30T10:25:29;2.00;;;1.70;;
4430;SDS011;2228;48.140;11.488;2023-08-30T10:27:57;3.33;;;1.70;;
4430;SDS011;2228;48.140;11.488;2023-08-30T10:30:25;2.73;;;1.80;;
4430;SDS011;2228;48.140;11.488;2023-08-30T10:32:52;3.10;;;1.80;;
4430;SDS011;2228;48.140;11.488;2023-08-30T10:35:19;3.50;;;1.50;;
4430;SDS011;2228;48.140;11.488;2023-08-30T10:37:55;2.80;;;1.50;;
4430;SDS011;2228;48.140;11.488;2023-08-30T10:40:23;2.22;;;1.60;;
4430;SDS011;2228;48.140;11.488;2023-08-30T10:43:01;1.50;;;1.10;;
4430;SDS011;2228;48.140;11.488;2023-08-30T10:45:28;1.50;;;1.40;;
4430;SDS011;2228;48.140;11.488;2023-08-30T10:47:56;1.73;;;1.10;;
4430;SDS011;2228;48.140;11.488;2023-08-30T10:50:28;2.15;;;1.38;;
4430;SDS011;2228;48.140;11.488;2023-08-30T10:52:56;1.70;;;1.27;;
4430;SDS011;2228;48.140;11.488;2023-08-30T10:55:23;1.70;;;1.20;;
4430;SDS011;2228;48.140;11.488;2023-08-30T10:57:57;1.50;;;1.30;;
4430;SDS011;2228;48.140;11.488;2023-08-30T11:00:28;2.47;;;1.27;;
4430;SDS011;2228;48.140;11.488;2023-08-30T11:02:56;1.67;;;1.30;;
4430;SDS011;2228;48.140;11.488;2023-08-30T11:05:23;1.60;;;1.13;;
4430;SDS011;2228;48.140;11.488;2023-08-30T11:07:52;1.40;;;1.30;;
4430;SDS011;2228;48.140;11.488;2023-08-30T11:10:19;3.03;;;1.30;;
4430;SDS011;2228;48.140;11.488;2023-08-30T11:12:47;1.30;;;0.93;;
4430;SDS011;2228;48.140;11.488;2023-08-30T11:15:16;3.10;;;1.20;;
4430;SDS011;2228;48.140;11.488;2023-08-30T11:17:43;2.80;;;1.30;;
4430;SDS011;2228;48.140;11.488;2023-08-30T11:20:11;2.38;;;1.10;;
4430;SDS011;2228;48.140;11.488;2023-08-30T11:22:40;1.20;;;1.02;;
4430;SDS011;2228;48.140;11.488;2023-08-30T11:25:10;2.67;;;1.10;;
4430;SDS011;2228;48.140;11.488;2023-08-30T11:27:38;1.70;;;1.00;;
4430;SDS011;2228;48.140;11.488;2023-08-30T11:30:06;1.60;;;1.00;;
4430;SDS011;2228;48.140;11.488;2023-08-30T11:32:35;2.83;;;1.10;;
4430;SDS011;2228;48.140;11.488;2023-08-30T11:35:04;1.20;;;1.10;;
4430;SDS011;2228;48.140;11.488;2023-08-30T11:37:32;1.20;;;1.10;;
4430;SDS011;2228;48.140;11.488;2023-08-30T11:40:00;1.30;;;1.10;;
4430;SDS011;2228;48.140;11.488;2023-08-30T11:42:29;1.60;;;1.02;;
4430;SDS011;2228;48.140;11.488;2023-08-30T11:44:57;1.40;;;1.00;;
4430;SDS011;2228;48.140;11.488;2023-08-30T11:47:25;1.65;;;1.08;;
4430;SDS011;2228;48.140;11.488;2023-08-30T11:49:54;1.90;;;1.00;;
4430;SDS011;2228;48.140;11.488;2023-08-30T11:52:22;1.70;;;1.00;;
4430;SDS011;2228;48.140;11.488;2023-08-30T11:54:50;2.00;;;1.00;;
4430;SDS011;2228;48.140;11.488;2023-08-30T11:57:17;2.45;;;1.20;;
4430;SDS011;2228;48.140;11.488;2023-08-30T11:59:45;2.70;;;1.20;;
4430;SDS011;2228;48.140;11.488;2023-08-30T12:02:15;2.03;;;1.20;;
4430;SDS011;2228;48.140;11.488;2023-08-30T12:04:44;2.90;;;1.10;;
4430;SDS011;2228;48.140;11.488;2023-08-30T12:07:21;2.13;;;1.10;;
4430;SDS011;2228;48.140;11.488;2023-08-30T12:09:49;4.45;;;1.20;;
4430;SDS011;2228;48.140;11.488;2023-08-30T12:12:16;1.90;;;1.20;;
4430;SDS011;2228;48.140;11.488;2023-08-30T12:14:42;1.20;;;1.10;;
4430;SDS011;2228;48.140;11.488;2023-08-30T12:17:09;2.17;;;1.30;;
4430;SDS011;2228;48.140;11.488;2023-08-30T12:19:37;2.60;;;1.20;;
4430;SDS011;2228;48.140;11.488;2023-08-30T12:22:05;3.22;;;1.20;;
4430;SDS011;2228;48.140;11.488;2023-08-30T12:24:44;4.33;;;1.70;;
4430;SDS011;2228;48.140;11.488;2023-08-30T12:27:11;3.42;;;1.38;;
4430;SDS011;2228;48.140;11.488;2023-08-30T12:29:39;1.13;;;1.00;;
4430;SDS011;2228;48.140;11.488;2023-08-30T12:32:06;2.20;;;1.20;;
4430;SDS011;2228;48.140;11.488;2023-08-30T12:34:35;2.90;;;1.30;;
4430;SDS011;2228;48.140;11.488;2023-08-30T12:37:02;1.38;;;0.90;;
4430;SDS011;2228;48.140;11.488;2023-08-30T12:39:31;1.10;;;0.90;;
4430;SDS011;2228;48.140;11.488;2023-08-30T12:41:59;2.50;;;0.90;;
4430;SDS011;2228;48.140;11.488;2023-08-30T12:44:27;1.42;;;0.93;;
4430;SDS011;2228;48.140;11.488;2023-08-30T12:46:54;1.10;;;0.90;;
4430;SDS011;2228;48.140;11.488;2023-08-30T12:49:21;2.80;;;0.98;;
4430;SDS011;2228;48.140;11.488;2023-08-30T12:51:48;1.00;;;0.90;;
4430;SDS011;2228;48.140;11.488;2023-08-30T12:54:15;2.60;;;0.93;;
4430;SDS011;2228;48.140;11.488;2023-08-30T12:56:42;1.10;;;0.98;;
4430;SDS011;2228;48.140;11.488;2023-08-30T12:59:10;2.00;;;0.98;;
4430;SDS011;2228;48.140;11.488;2023-08-30T13:01:37;2.80;;;1.10;;
4430;SDS011;2228;48.140;11.488;2023-08-30T13:04:05;1.48;;;0.90;;
4430;SDS011;2228;48.140;11.488;2023-08-30T13:06:32;0.82;;;0.80;;
4430;SDS011;2228;48.140;11.488;2023-08-30T13:08:59;1.02;;;0.88;;
4430;SDS011;2228;48.140;11.488;2023-08-30T13:11:26;1.30;;;0.90;;
4430;SDS011;2228;48.140;11.488;2023-08-30T13:13:56;2.10;;;1.00;;
4430;SDS011;2228;48.140;11.488;2023-08-30T13:16:28;1.20;;;1.00;;
4430;SDS011;2228;48.140;11.488;2023-08-30T13:18:56;1.80;;;1.15;;
4430;SDS011;2228;48.140;11.488;2023-08-30T13:21:23;1.50;;;1.40;;
4430;SDS011;2228;48.140;11.488;2023-08-30T13:23:49;2.47;;;1.63;;
4430;SDS011;2228;48.140;11.488;2023-08-30T13:26:17;2.87;;;1.40;;
4430;SDS011;2228;48.140;11.488;2023-08-30T13:28:44;2.33;;;1.52;;
4430;SDS011;2228;48.140;11.488;2023-08-30T13:31:10;2.00;;;1.40;;
4430;SDS011;2228;48.140;11.488;2023-08-30T13:33:39;1.50;;;1.40;;
4430;SDS011;2228;48.140;11.488;2023-08-30T13:36:06;1.73;;;1.50;;
4430;SDS011;2228;48.140;11.488;2023-08-30T13:38:33;1.70;;;1.48;;
4430;SDS011;2228;48.140;11.488;2023-08-30T13:41:00;3.30;;;1.70;;
4430;SDS011;2228;48.140;11.488;2023-08-30T13:43:29;1.60;;;1.30;;
4430;SDS011;2228;48.140;11.488;2023-08-30T13:45:56;2.65;;;1.63;;
4430;SDS011;2228;48.140;11.488;2023-08-30T13:48:23;1.90;;;1.70;;
4430;SDS011;2228;48.140;11.488;2023-08-30T13:50:52;2.90;;;1.90;;
4430;SDS011;2228;48.140;11.488;2023-08-30T13:53:19;1.60;;;1.50;;
4430;SDS011;2228;48.140;11.488;2023-08-30T13:55:45;1.60;;;1.50;;
4430;SDS011;2228;48.140;11.488;2023-08-30T13:58:13;3.23;;;1.90;;
4430;SDS011;2228;48.140;11.488;2023-08-30T14:00:40;3.15;;;1.50;;
4430;SDS011;2228;48.140;11.488;2023-08-30T14:03:07;8.90;;;1.60;;
4430;SDS011;2228;48.140;11.488;2023-08-30T14:05:39;2.70;;;1.93;;
4430;SDS011;2228;48.140;11.488;2023-08-30T14:08:08;2.80;;;1.60;;
4430;SDS011;2228;48.140;11.488;2023-08-30T14:10:35;2.30;;;1.50;;
4430;SDS011;2228;48.140;11.488;2023-08-30T14:13:04;2.50;;;1.40;;
4430;SDS011;2228;48.140;11.488;2023-08-30T14:16:14;3.08;;;1.50;;
4430;SDS011;2228;48.140;11.488;2023-08-30T14:18:41;1.70;;;1.25;;
4430;SDS011;2228;48.140;11.488;2023-08-30T14:21:09;3.00;;;1.25;;
4430;SDS011;2228;48.140;11.488;2023-08-30T14:23:37;1.40;;;1.17;;
4430;SDS011;2228;48.140;11.488;2023-08-30T14:26:05;2.50;;;1.00;;
4430;SDS011;2228;48.140;11.488;2023-08-30T14:28:35;1.47;;;0.90;;
4430;SDS011;2228;48.140;11.488;2023-08-30T14:31:03;1.00;;;0.90;;
4430;SDS011;2228;48.140;11.488;2023-08-30T14:33:33;2.75;;;1.10;;
4430;SDS011;2228;48.140;11.488;2023-08-30T14:36:00;1.90;;;1.20;;
4430;SDS011;2228;48.140;11.488;2023-08-30T14:38:27;2.95;;;1.00;;
4430;SDS011;2228;48.140;11.488;2023-08-30T14:40:56;2.37;;;1.60;;
4430;SDS011;2228;48.140;11.488;2023-08-30T14:43:23;1.70;;;0.82;;
4430;SDS011;2228;48.140;11.488;2023-08-30T14:45:50;2.70;;;1.20;;
4430;SDS011;2228;48.140;11.488;2023-08-30T14:48:17;8.43;;;1.90;;
4430;SDS011;2228;48.140;11.488;2023-08-30T14:50:44;3.20;;;1.20;;
4430;SDS011;2228;48.140;11.488;2023-08-30T14:53:16;4.00;;;1.10;;
4430;SDS011;2228;48.140;11.488;2023-08-30T14:55:44;1.98;;;1.20;;
4430;SDS011;2228;48.140;11.488;2023-08-30T14:58:12;1.35;;;1.05;;
4430;SDS011;2228;48.140;11.488;2023-08-30T15:00:39;1.07;;;0.90;;
4430;SDS011;2228;48.140;11.488;2023-08-30T15:03:06;1.65;;;1.15;;
4430;SDS011;2228;48.140;11.488;2023-08-30T15:05:33;2.67;;;1.20;;
4430;SDS011;2228;48.140;11.488;2023-08-30T15:08:01;2.13;;;1.40;;
4430;SDS011;2228;48.140;11.488;2023-08-30T15:10:27;3.17;;;1.30;;
4430;SDS011;2228;48.140;11.488;2023-08-30T15:12:54;1.60;;;0.90;;
4430;SDS011;2228;48.140;11.488;2023-08-30T15:15:23;1.30;;;1.00;;
4430;SDS011;2228;48.140;11.488;2023-08-30T15:17:50;1.30;;;0.90;;
4430;SDS011;2228;48.140;11.488;2023-08-30T15:20:17;2.80;;;1.10;;
4430;SDS011;2228;48.140;11.488;2023-08-30T15:22:44;1.20;;;1.00;;
4430;SDS011;2228;48.140;11.488;2023-08-30T15:25:11;1.40;;;0.90;;
4430;SDS011;2228;48.140;11.488;2023-08-30T15:27:38;1.40;;;0.80;;
4430;SDS011;2228;48.140;11.488;2023-08-30T15:30:06;1.50;;;0.90;;
4430;SDS011;2228;48.140;11.488;2023-08-30T15:32:52;2.78;;;1.27;;
4430;SDS011;2228;48.140;11.488;2023-08-30T15:35:19;1.70;;;1.10;;
4430;SDS011;2228;48.140;11.488;2023-08-30T15:37:47;2.70;;;1.00;;
4430;SDS011;2228;48.140;11.488;2023-08-30T15:40:14;1.40;;;1.00;;
4430;SDS011;2228;48.140;11.488;2023-08-30T15:42:41;2.13;;;0.90;;
4430;SDS011;2228;48.140;11.488;2023-08-30T15:45:08;1.33;;;0.93;;
4430;SDS011;2228;48.140;11.488;2023-08-30T15:47:35;2.60;;;0.90;;
4430;SDS011;2228;48.140;11.488;2023-08-30T15:50:04;2.78;;;1.30;;
4430;SDS011;2228;48.140;11.488;2023-08-30T15:52:32;1.58;;;1.20;;
4430;SDS011;2228;48.140;11.488;2023-08-30T15:54:59;1.42;;;0.95;;
4430;SDS011;2228;48.140;11.488;2023-08-30T15:57:26;2.45;;;1.10;;
4430;SDS011;2228;48.140;11.488;2023-08-30T15:59:53;1.42;;;1.20;;
4430;SDS011;2228;48.140;11.488;2023-08-30T16:02:20;3.00;;;1.63;;
4430;SDS011;2228;48.140;11.488;2023-08-30T16:04:47;2.00;;;1.20;;
4430;SDS011;2228;48.140;11.488;2023-08-30T16:07:15;2.30;;;1.13;;
4430;SDS011;2228;48.140;11.488;2023-08-30T16:09:43;1.67;;;1.27;;
4430;SDS011;2228;48.140;11.488;2023-08-30T16:12:13;5.00;;;1.10;;
4430;SDS011;2228;48.140;11.488;2023-08-30T16:14:40;1.80;;;1.20;;
4430;SDS011;2228;48.140;11.488;2023-08-30T16:17:07;1.90;;;1.10;;
4430;SDS011;2228;48.140;11.488;2023-08-30T16:19:34;3.15;;;1.30;;
4430;SDS011;2228;48.140;11.488;2023-08-30T16:22:01;4.90;;;1.70;;
4430;SDS011;2228;48.140;11.488;2023-08-30T16:24:30;2.10;;;1.40;;
4430;SDS011;2228;48.140;11.488;2023-08-30T16:26:57;5.53;;;1.40;;
4430;SDS011;2228;48.140;11.488;2023-08-30T16:29:26;1.40;;;1.30;;
4430;SDS011;2228;48.140;11.488;2023-08-30T16:31:53;1.70;;;1.30;;
4430;SDS011;2228;48.140;11.488;2023-08-30T16:34:20;1.52;;;1.17;;
4430;SDS011;2228;48.140;11.488;2023-08-30T16:36:48;1.60;;;1.40;;
4430;SDS011;2228;48.140;11.488;2023-08-30T16:39:15;2.17;;;1.20;;
4430;SDS011;2228;48.140;11.488;2023-08-30T16:41:44;2.20;;;1.30;;
4430;SDS011;2228;48.140;11.488;2023-08-30T16:44:13;2.10;;;1.27;;
4430;SDS011;2228;48.140;11.488;2023-08-30T16:46:40;1.50;;;1.30;;
4430;SDS011;2228;48.140;11.488;2023-08-30T16:49:07;3.05;;;1.27;;
4430;SDS011;2228;48.140;11.488;2023-08-30T16:51:36;1.77;;;1.20;;
4430;SDS011;2228;48.140;11.488;2023-08-30T16:54:03;2.78;;;1.70;;
4430;SDS011;2228;48.140;11.488;2023-08-30T16:56:31;1.50;;;1.00;;
4430;SDS011;2228;48.140;11.488;2023-08-30T16:58:59;1.65;;;1.30;;
4430;SDS011;2228;48.140;11.488;2023-08-30T17:01:27;3.10;;;1.10;;
4430;SDS011;2228;48.140;11.488;2023-08-30T17:03:54;2.45;;;1.20;;
4430;SDS011;2228;48.140;11.488;2023-08-30T17:06:20;1.70;;;1.00;;
4430;SDS011;2228;48.140;11.488;2023-08-30T17:08:48;2.40;;;1.08;;
4430;SDS011;2228;48.140;11.488;2023-08-30T17:11:15;1.00;;;0.90;;
4430;SDS011;2228;48.140;11.488;2023-08-30T17:13:42;2.35;;;1.30;;
4430;SDS011;2228;48.140;11.488;2023-08-30T17:16:10;3.75;;;1.30;;
4430;SDS011;2228;48.140;11.488;2023-08-30T17:18:38;4.10;;;1.40;;
4430;SDS011;2228;48.140;11.488;2023-08-30T17:21:05;5.80;;;1.10;;
4430;SDS011;2228;48.140;11.488;2023-08-30T17:23:37;2.50;;;1.40;;
4430;SDS011;2228;48.140;11.488;2023-08-30T17:26:04;1.50;;;1.40;;
4430;SDS011;2228;48.140;11.488;2023-08-30T17:28:32;1.73;;;1.10;;
4430;SDS011;2228;48.140;11.488;2023-08-30T17:31:01;2.20;;;1.20;;
4430;SDS011;2228;48.140;11.488;2023-08-30T17:33:30;4.03;;;1.40;;
4430;SDS011;2228;48.140;11.488;2023-08-30T17:35:58;1.60;;;1.17;;
4430;SDS011;2228;48.140;11.488;2023-08-30T17:38:28;3.70;;;1.10;;
4430;SDS011;2228;48.140;11.488;2023-08-30T17:40:55;1.80;;;1.10;;
4430;SDS011;2228;48.140;11.488;2023-08-30T17:43:22;2.30;;;1.30;;
4430;SDS011;2228;48.140;11.488;2023-08-30T17:45:49;2.17;;;1.15;;
4430;SDS011;2228;48.140;11.488;2023-08-30T17:48:16;1.50;;;1.20;;
4430;SDS011;2228;48.140;11.488;2023-08-30T17:50:45;2.72;;;1.50;;
4430;SDS011;2228;48.140;11.488;2023-08-30T17:53:12;3.00;;;1.50;;
4430;SDS011;2228;48.140;11.488;2023-08-30T17:55:42;3.60;;;2.10;;
4430;SDS011;2228;48.140;11.488;2023-08-30T17:58:08;2.00;;;1.80;;
4430;SDS011;2228;48.140;11.488;2023-08-30T18:00:36;2.50;;;1.52;;
4430;SDS011;2228;48.140;11.488;2023-08-30T18:03:03;3.35;;;1.83;;
4430;SDS011;2228;48.140;11.488;2023-08-30T18:05:32;2.00;;;1.58;;
4430;SDS011;2228;48.140;11.488;2023-08-30T18:08:02;2.03;;;1.60;;
4430;SDS011;2228;48.140;11.488;2023-08-30T18:10:29;2.50;;;1.90;;
4430;SDS011;2228;48.140;11.488;2023-08-30T18:12:56;5.45;;;1.80;;
4430;SDS011;2228;48.140;11.488;2023-08-30T18:15:23;4.38;;;1.90;;
4430;SDS011;2228;48.140;11.488;2023-08-30T18:17:50;4.57;;;1.92;;
4430;SDS011;2228;48.140;11.488;2023-08-30T18:20:18;7.80;;;2.60;;
4430;SDS011;2228;48.140;11.488;2023-08-30T18:22:45;6.90;;;3.60;;
4430;SDS011;2228;48.140;11.488;2023-08-30T18:25:19;5.40;;;2.90;;
4430;SDS011;2228;48.140;11.488;2023-08-30T18:27:46;6.40;;;2.85;;
4430;SDS011;2228;48.140;11.488;2023-08-30T18:30:14;8.27;;;3.20;;
4430;SDS011;2228;48.140;11.488;2023-08-30T18:32:42;7.57;;;3.80;;
4430;SDS011;2228;48.140;11.488;2023-08-30T18:35:10;5.13;;;2.77;;
4430;SDS011;2228;48.140;11.488;2023-08-30T18:37:37;6.72;;;4.05;;
4430;SDS011;2228;48.140;11.488;2023-08-30T18:40:05;9.57;;;5.40;;
4430;SDS011;2228;48.140;11.488;2023-08-30T18:42:35;10.68;;;3.80;;
4430;SDS011;2228;48.140;11.488;2023-08-30T18:45:02;11.85;;;6.75;;
4430;SDS011;2228;48.140;11.488;2023-08-30T18:47:30;6.13;;;4.03;;
4430;SDS011;2228;48.140;11.488;2023-08-30T18:49:57;5.15;;;3.80;;
4430;SDS011;2228;48.140;11.488;2023-08-30T18:52:25;6.45;;;3.88;;
4430;SDS011;2228;48.140;11.488;2023-08-30T21:42:23;2.70;;;2.50;;
4430;SDS011;2228;48.140;11.488;2023-08-30T21:44:50;2.80;;;2.50;;
4430;SDS011;2228;48.140;11.488;2023-08-30T21:47:17;3.00;;;2.42;;
4430;SDS011;2228;48.140;11.488;2023-08-30T21:49:44;3.17;;;2.30;;
4430;SDS011;2228;48.140;11.488;2023-08-30T21:52:13;4.85;;;2.20;;
4430;SDS011;2228;48.140;11.488;2023-08-30T21:57:36;3.83;;;2.30;;
4430;SDS011;2228;48.140;11.488;2023-08-30T22:00:04;2.60;;;2.25;;
4430;SDS011;2228;48.140;11.488;2023-08-30T22:02:37;2.95;;;2.20;;
4430;SDS011;2228;48.140;11.488;2023-08-30T22:05:06;2.97;;;2.38;;
4430;SDS011;2228;48.140;11.488;2023-08-30T22:07:36;2.40;;;2.10;;
4430;SDS011;2228;48.140;11.488;2023-08-30T22:10:05;3.22;;;2.10;;
4430;SDS011;2228;48.140;11.488;2023-08-30T22:12:36;2.35;;;1.98;;
4430;SDS011;2228;48.140;11.488;2023-08-30T22:15:05;3.97;;;2.05;;
4430;SDS011;2228;48.140;11.488;2023-08-30T22:17:37;3.28;;;2.10;;
4430;SDS011;2228;48.140;11.488;2023-08-30T22:20:05;2.60;;;1.90;;
4430;SDS011;2228;48.140;11.488;2023-08-30T22:22:34;3.67;;;1.70;;
4430;SDS011;2228;48.140;11.488;2023-08-30T22:25:02;2.80;;;2.10;;
4430;SDS011;2228;48.140;11.488;2023-08-30T22:27:31;4.55;;;2.42;;
4430;SDS011;2228;48.140;11.488;2023-08-30T22:30:01;2.20;;;2.00;;
4430;SDS011;2228;48.140;11.488;2023-08-30T22:32:28;3.08;;;2.10;;
4430;SDS011;2228;48.140;11.488;2023-08-30T22:34:56;2.90;;;2.60;;
4430;SDS011;2228;48.140;11.488;2023-08-30T22:37:24;3.00;;;2.00;;
4430;SDS011;2228;48.140;11.488;2023-08-30T22:39:51;2.60;;;2.20;;
4430;SDS011;2228;48.140;11.488;2023-08-30T22:42:19;4.05;;;2.22;;
4430;SDS011;2228;48.140;11.488;2023-08-30T22:44:46;2.00;;;1.70;;
4430;SDS011;2228;48.140;11.488;2023-08-30T22:47:15;3.80;;;1.90;;
4430;SDS011;2228;48.140;11.488;2023-08-30T22:49:43;3.15;;;2.15;;
4430;SDS011;2228;48.140;11.488;2023-08-30T22:52:10;2.60;;;2.40;;
4430;SDS011;2228;48.140;11.488;2023-08-30T22:54:37;2.60;;;1.90;;
4430;SDS011;2228;48.140;11.488;2023-08-30T22:57:06;3.47;;;1.90;;
4430;SDS011;2228;48.140;11.488;2023-08-30T22:59:33;3.60;;;2.08;;
4430;SDS011;2228;48.140;11.488;2023-08-30T23:02:01;2.95;;;1.88;;
4430;SDS011;2228;48.140;11.488;2023-08-30T23:06:59;2.55;;;1.95;;
4430;SDS011;2228;48.140;11.488;2023-08-30T23:09:27;5.45;;;2.85;;
4430;SDS011;2228;48.140;11.488;2023-08-30T23:11:55;2.60;;;1.90;;
4430;SDS011;2228;48.140;11.488;2023-08-30T23:14:22;5.38;;;2.00;;
4430;SDS011;2228;48.140;11.488;2023-08-30T23:16:50;2.10;;;1.80;;
4430;SDS011;2228;48.140;11.488;2023-08-30T23:19:17;3.30;;;2.00;;
4430;SDS011;2228;48.140;11.488;2023-08-30T23:21:48;3.40;;;2.00;;
4430;SDS011;2228;48.140;11.488;2023-08-30T23:24:15;2.30;;;1.55;;
4430;SDS011;2228;48.140;11.488;2023-08-30T23:26:42;2.30;;;1.70;;
4430;SDS011;2228;48.140;11.488;2023-08-30T23:29:10;3.75;;;2.30;;
4430;SDS011;2228;48.140;11.488;2023-08-30T23:31:40;6.50;;;2.00;;
4430;SDS011;2228;48.140;11.488;2023-08-30T23:34:07;2.30;;;1.80;;
4430;SDS011;2228;48.140;11.488;2023-08-30T23:36:34;2.90;;;1.80;;
4430;SDS011;2228;48.140;11.488;2023-08-30T23:39:02;2.33;;;1.80;;
4430;SDS011;2228;48.140;11.488;2023-08-30T23:41:30;2.00;;;1.80;;
4430;SDS011;2228;48.140;11.488;2023-08-30T23:43:58;4.03;;;1.90;;
4430;SDS011;2228;48.140;11.488;2023-08-30T23:46:26;2.05;;;1.85;;
4430;SDS011;2228;48.140;11.488;2023-08-30T23:48:54;2.42;;;1.80;;
4430;SDS011;2228;48.140;11.488;2023-08-30T23:51:22;2.70;;;2.15;;
4430;SDS011;2228;48.140;11.488;2023-08-30T23:53:49;3.97;;;2.30;;
4430;SDS011;2228;48.140;11.488;2023-08-30T23:56:18;3.10;;;2.30;;
4430;SDS011;2228;48.140;11.488;2023-08-30T23:58:45;2.60;;;2.20;;
